Time;durP1;ratioP1;P1;durP2;ratioP2;P2;SDS_P1;SDS_P2;PMS_P1;PMS_P2;Temp;Humidity;BMP_temperature;BMP_pressure;BME280_temperature;BME280_humidity;BME280_pressure;Samples;Min_cycle;Max_cycle;Signal;HPM_P1;HPM_P2
2022/01/11 00:01:41;;;;;;;42.03;25.10;;;;;;;-0.47;74.12;100350.84;5067465;28;20229;-81
2022/01/11 00:04:16;;;;;;;42.37;25.23;;;;;;;-0.40;74.36;100345.88;5058494;28;20225;-82
2022/01/11 00:06:50;;;;;;;40.67;23.23;;;;;;;-0.40;74.02;100366.94;5051371;28;20585;-83
2022/01/11 00:11:53;;;;;;;44.10;25.17;;;;;;;-0.52;74.83;100358.31;5068757;28;20225;-87
2022/01/11 00:14:23;;;;;;;49.13;26.47;;;;;;;-0.46;74.53;100357.75;5059047;23;20228;-80
2022/01/11 00:16:51;;;;;;;42.83;22.87;;;;;;;-0.42;74.46;100361.00;5087330;28;20235;-81
2022/01/11 00:19:18;;;;;;;41.57;25.63;;;;;;;-0.58;74.93;100353.56;5082148;28;20228;-82
2022/01/11 00:22:03;;;;;;;40.70;25.40;;;;;;;-0.57;75.12;100366.59;5090138;28;20224;-91
2022/01/11 00:24:47;;;;;;;43.13;24.27;;;;;;;-0.61;74.65;100370.47;5086922;28;20233;-80
2022/01/11 00:27:14;;;;;;;39.57;23.17;;;;;;;-0.58;75.27;100364.94;5055145;28;20231;-82
2022/01/11 00:29:44;;;;;;;32.83;19.33;;;;;;;-0.67;74.81;100378.03;5085598;23;20227;-85
2022/01/11 00:32:32;;;;;;;43.70;24.87;;;;;;;-0.72;75.27;100367.06;5076377;28;20226;-83
2022/01/11 00:35:03;;;;;;;40.70;23.73;;;;;;;-0.65;75.04;100389.25;5074882;28;20313;-82
2022/01/11 00:37:30;;;;;;;39.83;23.67;;;;;;;-0.62;74.56;100384.59;5071786;28;20216;-84
2022/01/11 00:39:59;;;;;;;37.87;22.77;;;;;;;-0.72;74.41;100385.47;5071827;28;20311;-86
2022/01/11 00:42:45;;;;;;;39.50;23.20;;;;;;;-0.62;74.92;100399.53;5088876;28;20220;-87
2022/01/11 00:45:13;;;;;;;39.87;22.67;;;;;;;-0.56;74.30;100401.66;5076841;28;20238;-83
2022/01/11 00:47:41;;;;;;;40.07;22.53;;;;;;;-0.59;74.51;100407.16;5074020;28;20228;-82
2022/01/11 00:50:11;;;;;;;38.40;23.43;;;;;;;-0.58;74.71;100411.47;5070874;28;20231;-81
2022/01/11 00:52:38;;;;;;;38.07;20.27;;;;;;;-0.66;73.99;100403.38;5089731;28;20224;-83
2022/01/11 00:55:12;;;;;;;39.63;21.80;;;;;;;-0.62;74.71;100416.16;5071962;28;20235;-82
2022/01/11 00:57:43;;;;;;;42.40;23.53;;;;;;;-0.63;74.36;100416.28;5109360;22;20231;-82
2022/01/11 01:00:11;;;;;;;41.20;23.90;;;;;;;-0.67;74.71;100420.97;5071360;28;20642;-83
2022/01/11 01:02:41;;;;;;;46.00;24.03;;;;;;;-0.61;74.81;100438.91;5053641;28;20255;-86
2022/01/11 01:05:08;;;;;;;41.83;24.17;;;;;;;-0.71;74.62;100421.38;5078026;28;20241;-82
2022/01/11 01:07:35;;;;;;;38.80;23.97;;;;;;;-0.68;74.68;100429.00;5069462;28;20243;-82
2022/01/11 01:10:10;;;;;;;42.73;24.70;;;;;;;-0.73;74.67;100415.38;5070727;28;20247;-82
2022/01/11 01:12:41;;;;;;;43.53;25.10;;;;;;;-0.45;74.76;100441.88;5090598;28;20592;-81
2022/01/11 01:15:26;;;;;;;40.10;23.43;;;;;;;-0.50;74.45;100448.50;5104509;28;20223;-85
2022/01/11 01:17:58;;;;;;;45.43;25.17;;;;;;;-0.53;75.06;100449.59;5084841;28;20239;-80
2022/01/11 01:20:26;;;;;;;41.53;24.07;;;;;;;-0.65;75.38;100447.16;5086217;28;20307;-81
2022/01/11 01:23:12;;;;;;;44.93;25.30;;;;;;;-0.68;74.44;100447.41;5093284;22;20242;-81
2022/01/11 01:25:41;;;;;;;41.53;22.80;;;;;;;-0.65;74.05;100441.88;5104189;28;20235;-80
2022/01/11 01:28:11;;;;;;;38.50;21.67;;;;;;;-0.80;74.42;100441.38;5072700;28;20219;-82
2022/01/11 01:30:39;;;;;;;41.10;23.43;;;;;;;-0.65;73.98;100449.78;5072905;28;20566;-86
2022/01/11 01:33:07;;;;;;;42.27;21.90;;;;;;;-0.81;74.77;100452.03;5092433;28;20623;-82
2022/01/11 01:35:39;;;;;;;41.07;22.60;;;;;;;-0.80;74.98;100457.19;5090580;28;20255;-81
2022/01/11 01:38:12;;;;;;;42.10;23.20;;;;;;;-0.85;75.16;100455.88;5090037;28;20209;-88
2022/01/11 01:40:44;;;;;;;39.03;21.07;;;;;;;-0.83;75.02;100459.19;5071698;28;20224;-83
2022/01/11 01:43:13;;;;;;;39.67;21.63;;;;;;;-0.90;75.05;100459.72;5090449;28;20227;-83
2022/01/11 01:45:44;;;;;;;40.03;22.17;;;;;;;-0.80;74.98;100470.34;5088052;28;20187;-84
2022/01/11 01:48:17;;;;;;;41.43;21.40;;;;;;;-0.85;74.17;100454.09;5102583;28;20247;-81
2022/01/11 01:51:02;;;;;;;39.43;20.27;;;;;;;-0.81;74.34;100470.44;5087177;28;20258;-84
2022/01/11 01:53:29;;;;;;;39.27;21.90;;;;;;;-0.78;74.32;100471.03;5071345;28;20192;-81
2022/01/11 01:56:00;;;;;;;40.70;21.57;;;;;;;-0.93;74.76;100456.50;5086849;28;20655;-84
2022/01/11 01:58:44;;;;;;;39.90;22.67;;;;;;;-0.82;74.91;100469.59;5072549;28;20219;-81
2022/01/11 02:01:17;;;;;;;37.00;20.67;;;;;;;-0.84;75.06;100475.97;5057748;28;20228;-88
2022/01/11 02:03:49;;;;;;;38.43;22.37;;;;;;;-0.91;74.50;100465.09;5070458;28;20226;-87
2022/01/11 02:06:20;;;;;;;38.67;21.20;;;;;;;-0.92;74.26;100473.94;5103056;28;20227;-85
2022/01/11 02:08:48;;;;;;;42.43;21.97;;;;;;;-0.90;74.20;100469.41;5069836;22;20278;-86
2022/01/11 02:11:19;;;;;;;42.77;22.27;;;;;;;-0.93;74.69;100482.78;5053565;28;20237;-82
2022/01/11 02:13:49;;;;;;;41.57;22.00;;;;;;;-0.83;74.47;100473.19;5080322;23;20523;-82
2022/01/11 02:16:21;;;;;;;36.63;21.83;;;;;;;-0.88;74.10;100484.09;5083242;28;20220;-82
2022/01/11 02:18:54;;;;;;;40.73;21.60;;;;;;;-0.90;74.53;100482.56;5083548;28;20307;-83
2022/01/11 02:21:24;;;;;;;40.93;22.77;;;;;;;-0.92;74.19;100487.94;5066222;28;20248;-83
2022/01/11 02:23:55;;;;;;;39.87;22.07;;;;;;;-0.80;74.21;100480.84;5082197;28;20526;-81
2022/01/11 02:26:23;;;;;;;38.63;19.50;;;;;;;-0.85;73.85;100482.19;5068242;28;20205;-86
2022/01/11 02:28:51;;;;;;;42.37;22.03;;;;;;;-0.85;73.60;100469.88;5067580;28;20224;-85
2022/01/11 02:31:20;;;;;;;38.40;21.53;;;;;;;-0.90;74.00;100467.63;5069738;28;20291;-81
2022/01/11 02:33:58;;;;;;;43.47;22.93;;;;;;;-0.94;73.77;100479.38;5053355;28;20227;-81
2022/01/11 02:36:31;;;;;;;40.80;22.90;;;;;;;-0.79;73.97;100487.75;5089421;23;20236;-81
2022/01/11 02:39:51;;;;;;;42.37;23.23;;;;;;;-0.79;73.77;100500.91;5096299;22;20314;-81
2022/01/11 02:42:25;;;;;;;41.40;23.80;;;;;;;-0.79;73.37;100485.13;5051554;28;20225;-81
2022/01/11 02:44:51;;;;;;;40.37;23.57;;;;;;;-0.84;72.88;100492.56;5053875;28;20233;-81
2022/01/11 02:47:24;;;;;;;43.80;24.20;;;;;;;-0.69;72.40;100493.09;5037296;28;20292;-81
2022/01/11 02:49:56;;;;;;;42.67;23.67;;;;;;;-0.58;72.28;100493.91;5069517;28;20213;-82
2022/01/11 02:52:29;;;;;;;42.87;22.70;;;;;;;-0.71;72.83;100477.47;5058381;23;20285;-81
2022/01/11 02:55:20;;;;;;;40.70;23.20;;;;;;;-0.72;72.52;100493.38;5058248;28;20449;-81
2022/01/11 02:58:05;;;;;;;39.27;23.37;;;;;;;-0.59;72.91;100510.66;5060217;23;20241;-81
2022/01/11 03:00:38;;;;;;;43.80;21.47;;;;;;;-0.73;72.10;100495.16;5069726;28;20228;-84
2022/01/11 03:03:18;;;;;;;37.27;21.57;;;;;;;-0.76;71.96;100502.47;5072525;28;20204;-81
2022/01/11 03:05:50;;;;;;;37.83;21.17;;;;;;;-0.61;71.80;100506.50;5037358;28;20650;-81
2022/01/11 03:08:23;;;;;;;37.83;20.97;;;;;;;-0.71;71.87;100500.31;5070811;28;20216;-81
2022/01/11 03:10:51;;;;;;;39.80;22.13;;;;;;;-0.76;72.74;100505.13;5054453;28;20232;-81
2022/01/11 03:13:19;;;;;;;38.17;21.37;;;;;;;-0.67;72.51;100520.97;5054698;28;20181;-82
2022/01/11 03:15:53;;;;;;;39.73;22.73;;;;;;;-0.71;72.73;100527.47;5093978;23;20292;-81
2022/01/11 03:18:22;;;;;;;39.60;22.83;;;;;;;-0.55;71.54;100514.69;5054565;28;20227;-81
2022/01/11 03:20:53;;;;;;;41.67;22.20;;;;;;;-0.55;71.29;100519.13;5054390;28;20176;-90
2022/01/11 03:23:21;;;;;;;40.07;21.77;;;;;;;-0.73;71.08;100510.94;5053949;28;20247;-84
2022/01/11 03:25:53;;;;;;;38.07;21.60;;;;;;;-0.70;71.35;100513.31;5054381;28;20312;-81
2022/01/11 03:28:23;;;;;;;33.77;20.30;;;;;;;-0.67;71.41;100517.50;5052701;28;20223;-81
2022/01/11 03:30:53;;;;;;;40.90;22.33;;;;;;;-0.61;71.56;100517.00;5076719;23;20246;-81
2022/01/11 03:33:22;;;;;;;37.97;21.43;;;;;;;-0.62;71.51;100515.34;5092850;28;20224;-81
2022/01/11 03:35:50;;;;;;;37.87;20.63;;;;;;;-0.58;71.31;100503.59;5075653;28;20319;-81
2022/01/11 03:38:18;;;;;;;37.73;22.03;;;;;;;-0.58;70.70;100516.75;5073307;28;20227;-82
2022/01/11 03:40:55;;;;;;;38.17;21.83;;;;;;;-0.67;70.86;100526.25;5070332;28;20243;-81
2022/01/11 03:43:26;;;;;;;34.77;20.33;;;;;;;-0.59;71.12;100536.97;5062490;28;20228;-81
2022/01/11 03:45:57;;;;;;;36.43;20.27;;;;;;;-0.64;70.72;100520.72;5068977;28;20298;-82
2022/01/11 03:48:27;;;;;;;32.27;19.03;;;;;;;-0.58;69.98;100516.75;5055127;28;20258;-82
2022/01/11 03:51:04;;;;;;;34.77;20.40;;;;;;;-0.73;70.99;100523.28;5071283;28;20555;-82
2022/01/11 03:54:15;;;;;;;33.53;18.93;;;;;;;-0.66;70.22;100535.81;5105871;28;20212;-82
2022/01/11 03:57:09;;;;;;;28.87;16.73;;;;;;;-0.69;70.02;100536.06;5074601;28;20301;-84
2022/01/11 03:59:44;;;;;;;27.20;16.97;;;;;;;-0.69;69.88;100540.47;5080082;28;20220;-83
2022/01/11 04:02:21;;;;;;;29.63;16.50;;;;;;;-0.74;70.49;100538.22;5073819;28;20216;-81
2022/01/11 04:04:52;;;;;;;30.70;17.10;;;;;;;-0.64;69.90;100531.25;5092071;28;20275;-83
2022/01/11 04:07:23;;;;;;;33.57;18.40;;;;;;;-0.77;70.30;100532.38;5079268;23;20228;-82
2022/01/11 04:10:00;;;;;;;29.07;16.87;;;;;;;-0.62;70.07;100536.41;5077913;22;20224;-85
2022/01/11 04:12:30;;;;;;;33.70;18.60;;;;;;;-0.69;70.89;100540.47;5064660;28;20490;-80
2022/01/11 04:14:57;;;;;;;31.40;18.03;;;;;;;-0.81;70.67;100531.81;5064607;28;20233;-82
2022/01/11 04:17:26;;;;;;;29.40;16.40;;;;;;;-0.82;71.00;100540.66;5064091;28;20244;-83
2022/01/11 04:19:54;;;;;;;30.43;17.00;;;;;;;-0.83;70.85;100535.50;5058371;28;20275;-83
2022/01/11 04:22:20;;;;;;;29.47;17.83;;;;;;;-0.77;71.15;100556.91;5063494;28;20237;-83
2022/01/11 04:24:47;;;;;;;29.67;16.93;;;;;;;-0.77;70.78;100546.38;5042653;28;20772;-82
2022/01/11 04:27:15;;;;;;;31.60;17.83;;;;;;;-0.76;70.69;100544.59;5056094;28;20217;-85
2022/01/11 04:29:48;;;;;;;28.80;17.33;;;;;;;-0.80;70.45;100562.44;5048421;28;20219;-81
2022/01/11 04:32:17;;;;;;;29.83;17.07;;;;;;;-0.81;70.65;100538.84;5046270;28;20201;-80
2022/01/11 04:34:45;;;;;;;33.37;17.73;;;;;;;-0.77;70.65;100538.47;5049757;28;20229;-85
2022/01/11 04:37:13;;;;;;;32.80;18.00;;;;;;;-0.69;70.30;100556.25;5048306;28;20186;-94
2022/01/11 04:39:46;;;;;;;31.97;18.00;;;;;;;-0.80;69.93;100545.78;5019418;28;20222;-82
2022/01/11 04:42:14;;;;;;;32.40;18.20;;;;;;;-0.74;70.39;100558.44;5050486;28;20694;-81
2022/01/11 04:44:42;;;;;;;33.63;18.53;;;;;;;-0.93;70.56;100548.56;5046589;28;20256;-82
2022/01/11 04:47:10;;;;;;;33.93;17.83;;;;;;;-0.78;70.41;100578.06;5031837;28;20536;-82
2022/01/11 04:49:37;;;;;;;33.43;19.80;;;;;;;-1.03;70.78;100555.56;5048722;28;20283;-83
2022/01/11 04:52:07;;;;;;;34.80;18.27;;;;;;;-0.83;71.06;100580.22;5046217;28;20225;-84
2022/01/11 04:54:34;;;;;;;34.63;19.47;;;;;;;-0.89;70.74;100586.84;5032577;28;20232;-82
2022/01/11 04:57:01;;;;;;;37.07;20.17;;;;;;;-0.79;70.29;100573.78;5033523;28;20241;-83
2022/01/11 04:59:33;;;;;;;34.97;19.60;;;;;;;-0.74;70.63;100582.13;5032940;28;20198;-84
2022/01/11 05:01:59;;;;;;;36.10;20.13;;;;;;;-0.71;70.69;100590.63;5031296;28;20534;-83
2022/01/11 05:04:30;;;;;;;35.27;20.47;;;;;;;-0.81;70.79;100596.75;5050287;28;20229;-81
2022/01/11 05:07:00;;;;;;;33.57;19.70;;;;;;;-0.71;70.90;100608.22;5068570;28;20228;-82
2022/01/11 05:09:29;;;;;;;38.00;20.77;;;;;;;-0.71;70.80;100601.16;5043531;23;20247;-81
2022/01/11 05:11:57;;;;;;;34.87;19.83;;;;;;;-0.71;71.02;100601.16;5044099;28;20696;-91
2022/01/11 05:14:28;;;;;;;34.57;20.37;;;;;;;-0.70;70.30;100612.50;5064980;28;20232;-86
2022/01/11 05:16:58;;;;;;;36.03;21.00;;;;;;;-0.68;71.00;100613.22;5059012;28;20252;-80
2022/01/11 05:19:27;;;;;;;38.03;21.10;;;;;;;-0.80;70.94;100608.94;5065232;28;20577;-81
2022/01/11 05:21:59;;;;;;;34.80;19.93;;;;;;;-0.77;71.15;100619.22;5069103;28;20219;-81
2022/01/11 05:24:26;;;;;;;35.67;19.93;;;;;;;-0.83;71.04;100606.53;5066143;28;20209;-85
2022/01/11 05:26:56;;;;;;;34.60;20.30;;;;;;;-0.80;70.18;100609.78;5058750;28;20252;-83
2022/01/11 05:29:24;;;;;;;32.37;19.17;;;;;;;-0.69;70.39;100636.06;5044980;28;20226;-83
2022/01/11 05:31:56;;;;;;;30.30;17.10;;;;;;;-0.77;69.21;100627.94;5071749;28;20228;-82
2022/01/11 05:34:26;;;;;;;28.00;15.97;;;;;;;-0.75;69.13;100622.56;5047374;28;20225;-89
2022/01/11 05:37:00;;;;;;;28.30;15.47;;;;;;;-0.80;68.84;100630.84;5075116;28;20197;-86
2022/01/11 05:39:28;;;;;;;27.63;15.30;;;;;;;-0.78;68.72;100630.69;5065125;28;20229;-82
2022/01/11 05:41:55;;;;;;;24.77;15.27;;;;;;;-0.75;68.70;100633.09;5056954;28;20227;-82
2022/01/11 05:44:23;;;;;;;27.07;15.83;;;;;;;-0.83;69.44;100631.06;5064661;28;20255;-82
2022/01/11 05:46:50;;;;;;;25.47;15.70;;;;;;;-0.89;68.99;100639.47;5051987;28;20237;-82
2022/01/11 05:49:17;;;;;;;27.37;13.80;;;;;;;-0.78;68.82;100636.78;5060478;28;20225;-83
2022/01/11 05:51:49;;;;;;;30.23;15.07;;;;;;;-0.85;68.65;100638.25;5061334;28;20599;-89
2022/01/11 05:54:19;;;;;;;24.63;13.00;;;;;;;-0.81;67.92;100644.94;5076915;28;20251;-82
2022/01/11 05:56:50;;;;;;;27.57;15.30;;;;;;;-0.75;68.36;100646.25;5059602;28;20238;-86
2022/01/11 05:59:17;;;;;;;27.77;15.20;;;;;;;-0.90;68.35;100641.25;5067229;28;20219;-82
2022/01/11 06:01:44;;;;;;;27.73;15.53;;;;;;;-0.94;69.37;100654.78;5059563;28;20268;-95
2022/01/11 06:04:18;;;;;;;27.03;14.90;;;;;;;-1.14;69.16;100637.94;5063206;28;20589;-84
2022/01/11 06:06:47;;;;;;;27.53;14.93;;;;;;;-1.01;69.25;100664.94;5044784;28;20229;-82
2022/01/11 06:09:13;;;;;;;26.73;16.20;;;;;;;-1.04;69.33;100651.19;5067640;28;20225;-89
2022/01/11 06:11:45;;;;;;;31.17;17.30;;;;;;;-1.11;69.68;100652.63;5053886;28;20528;-85
2022/01/11 06:14:13;;;;;;;29.43;17.30;;;;;;;-1.08;69.55;100657.66;5069904;28;20229;-82
2022/01/11 06:16:40;;;;;;;31.30;16.53;;;;;;;-1.06;69.67;100661.81;5062125;28;20240;-83
2022/01/11 06:19:08;;;;;;;27.73;15.10;;;;;;;-1.14;69.90;100658.13;5055259;28;20529;-89
2022/01/11 06:21:44;;;;;;;26.63;15.17;;;;;;;-1.06;68.57;100674.97;5072992;28;20248;-82
2022/01/11 06:24:13;;;;;;;25.50;14.27;;;;;;;-1.01;67.70;100674.63;5055819;28;20221;-82
2022/01/11 06:26:46;;;;;;;24.27;14.80;;;;;;;-1.04;67.79;100675.72;5064276;28;20244;-86
2022/01/11 06:29:15;;;;;;;24.37;13.87;;;;;;;-1.09;67.96;100674.38;5069635;28;20260;-81
2022/01/11 06:31:42;;;;;;;25.47;14.67;;;;;;;-1.15;67.67;100680.97;5059598;28;20225;-85
2022/01/11 06:34:15;;;;;;;27.17;15.53;;;;;;;-1.11;67.99;100677.13;5050012;28;20305;-85
2022/01/11 06:36:42;;;;;;;26.20;15.50;;;;;;;-1.05;67.56;100713.47;5050107;28;20226;-84
2022/01/11 06:39:09;;;;;;;27.40;15.83;;;;;;;-1.19;68.26;100707.63;5044055;28;20234;-81
2022/01/11 06:41:38;;;;;;;31.77;17.80;;;;;;;-1.15;68.21;100716.94;5050024;28;20251;-83
2022/01/11 06:44:10;;;;;;;30.23;17.57;;;;;;;-0.94;67.94;100725.81;5066856;28;20243;-83
2022/01/11 06:46:39;;;;;;;29.07;16.37;;;;;;;-1.03;67.82;100724.72;5069393;28;20241;-82
2022/01/11 06:49:09;;;;;;;28.47;14.87;;;;;;;-1.10;67.88;100723.53;5069832;28;20229;-87
2022/01/11 06:51:37;;;;;;;26.63;14.93;;;;;;;-1.03;67.07;100740.50;5066794;28;20281;-85
2022/01/11 06:54:05;;;;;;;28.77;15.53;;;;;;;-1.19;67.59;100733.91;5066798;28;20225;-86
2022/01/11 06:56:32;;;;;;;26.13;14.07;;;;;;;-1.07;67.30;100731.16;5047072;28;20255;-83
2022/01/11 06:59:05;;;;;;;25.03;14.63;;;;;;;-1.09;67.12;100738.34;5062732;28;20225;-81
2022/01/11 07:01:34;;;;;;;31.27;16.30;;;;;;;-1.16;67.28;100737.13;5069777;28;20237;-86
2022/01/11 07:04:11;;;;;;;29.80;15.80;;;;;;;-1.09;67.38;100745.41;5062790;28;20249;-83
2022/01/11 07:06:49;;;;;;;28.33;16.33;;;;;;;-1.02;67.17;100760.56;5067503;28;20217;-82
2022/01/11 07:09:23;;;;;;;26.13;15.10;;;;;;;-0.99;67.18;100765.63;5056590;28;20288;-85
2022/01/11 07:11:51;;;;;;;28.27;16.37;;;;;;;-1.08;67.16;100761.06;5012417;28;20269;-80
2022/01/11 07:14:24;;;;;;;28.40;15.50;;;;;;;-0.91;67.22;100771.13;5045961;28;20241;-83
2022/01/11 07:16:52;;;;;;;28.83;16.10;;;;;;;-0.97;67.58;100776.00;5032320;28;20233;-91
2022/01/11 07:19:22;;;;;;;27.47;16.17;;;;;;;-0.93;67.27;100767.75;5046253;28;20217;-85
2022/01/11 07:21:51;;;;;;;31.63;16.80;;;;;;;-0.99;67.39;100768.25;5014929;28;20217;-82
2022/01/11 07:24:19;;;;;;;27.23;16.13;;;;;;;-0.88;66.74;100765.63;5049063;28;20325;-83
2022/01/11 07:26:49;;;;;;;30.63;16.37;;;;;;;-0.82;66.59;100777.47;5031623;28;20233;-82
2022/01/11 07:29:18;;;;;;;33.83;21.30;;;;;;;-0.87;66.77;100790.13;5033813;28;20313;-82
2022/01/11 07:31:48;;;;;;;28.43;16.20;;;;;;;-0.88;67.35;100777.94;5028712;28;20222;-82
2022/01/11 07:34:19;;;;;;;27.53;15.67;;;;;;;-0.82;67.27;100788.00;5009610;28;20223;-90
2022/01/11 07:36:51;;;;;;;29.77;16.07;;;;;;;-0.86;67.02;100786.56;5032879;28;20218;-86
2022/01/11 07:39:24;;;;;;;30.23;16.70;;;;;;;-0.81;67.63;100787.03;5033612;28;20194;-82
2022/01/11 07:41:54;;;;;;;30.63;15.93;;;;;;;-0.81;67.74;100788.81;5033226;28;20233;-83
2022/01/11 07:44:43;;;;;;;29.70;17.20;;;;;;;-0.83;67.74;100783.69;5048618;28;20245;-82
2022/01/11 07:47:12;;;;;;;28.23;16.40;;;;;;;-0.72;66.71;100793.38;5031753;28;20244;-81
2022/01/11 07:49:39;;;;;;;27.77;16.20;;;;;;;-0.84;66.27;100784.63;5033411;28;20245;-83
2022/01/11 07:52:07;;;;;;;28.07;15.80;;;;;;;-0.73;66.28;100792.53;5010265;28;20228;-89
2022/01/11 07:54:34;;;;;;;28.27;14.93;;;;;;;-0.83;65.95;100783.69;5021191;28;20232;-83
2022/01/11 07:57:03;;;;;;;26.90;14.33;;;;;;;-0.76;66.17;100795.41;5040185;28;20653;-82
2022/01/11 07:59:31;;;;;;;25.03;14.47;;;;;;;-0.92;65.22;100787.00;5041305;28;20625;-91
2022/01/11 08:02:19;;;;;;;22.20;13.63;;;;;;;-0.96;65.42;100790.84;5024851;28;20258;-87
2022/01/11 08:04:47;;;;;;;24.07;13.70;;;;;;;-0.70;64.72;100805.44;5026439;28;20222;-90
2022/01/11 08:07:14;;;;;;;25.67;13.73;;;;;;;-0.95;64.51;100784.63;5042724;28;20246;-82
2022/01/11 08:10:01;;;;;;;24.33;13.00;;;;;;;-0.78;64.57;100805.22;5026965;28;20229;-82
2022/01/11 08:12:33;;;;;;;23.23;12.70;;;;;;;-0.70;63.85;100794.09;5045625;28;20229;-82
2022/01/11 08:15:02;;;;;;;24.00;12.47;;;;;;;-0.84;64.31;100800.41;5029801;28;20214;-83
2022/01/11 08:17:31;;;;;;;23.73;13.93;;;;;;;-0.85;64.77;100797.91;5029408;28;20232;-81
2022/01/11 08:19:59;;;;;;;22.30;12.97;;;;;;;-0.81;64.39;100810.72;5030304;28;20222;-82
2022/01/11 08:22:29;;;;;;;21.47;12.07;;;;;;;-0.78;64.22;100810.47;5028209;28;20260;-81
2022/01/11 08:24:55;;;;;;;24.47;12.80;;;;;;;-0.79;63.72;100800.09;5030031;28;20640;-85
2022/01/11 08:27:26;;;;;;;23.90;12.57;;;;;;;-0.85;64.03;100804.03;5048225;28;20253;-81
2022/01/11 08:29:57;;;;;;;23.03;13.00;;;;;;;-0.88;63.70;100817.41;5030146;28;20225;-81
2022/01/11 08:32:27;;;;;;;23.23;11.70;;;;;;;-0.79;63.93;100807.97;5030234;28;20294;-88
2022/01/11 08:34:54;;;;;;;22.97;12.27;;;;;;;-0.63;63.68;100817.19;5028863;28;20245;-88
2022/01/11 08:37:25;;;;;;;22.13;12.57;;;;;;;-0.53;63.23;100831.31;5030557;28;20246;-81
2022/01/11 08:39:53;;;;;;;22.43;13.07;;;;;;;-0.65;63.74;100815.63;5028124;28;20230;-86
2022/01/11 08:42:33;;;;;;;24.57;12.17;;;;;;;-0.66;63.47;100825.34;5014143;28;20232;-83
2022/01/11 08:45:01;;;;;;;25.23;13.03;;;;;;;-0.64;63.73;100812.03;5012402;28;20541;-84
2022/01/11 08:47:35;;;;;;;22.13;12.33;;;;;;;-0.67;63.39;100813.13;5005922;28;20291;-87
2022/01/11 08:50:05;;;;;;;25.77;13.33;;;;;;;-0.65;63.33;100828.78;5021495;28;20230;-82
2022/01/11 08:52:42;;;;;;;23.13;12.57;;;;;;;-0.68;62.92;100821.97;5007733;28;20226;-86
2022/01/11 08:55:14;;;;;;;21.43;11.63;;;;;;;-0.65;63.01;100829.63;5025797;28;20227;-92
2022/01/11 08:57:42;;;;;;;23.40;12.87;;;;;;;-0.68;63.68;100823.75;5025206;28;20242;-92
2022/01/11 09:00:19;;;;;;;23.73;12.87;;;;;;;-0.55;62.55;100842.91;5023914;28;20225;-91
2022/01/11 09:02:53;;;;;;;23.03;12.77;;;;;;;-0.49;62.91;100840.66;5010144;28;20238;-81
2022/01/11 09:05:22;;;;;;;20.77;12.00;;;;;;;-0.62;62.93;100839.09;5028505;28;20194;-82
2022/01/11 09:07:58;;;;;;;23.37;11.57;;;;;;;-0.58;62.58;100822.94;5027831;28;20229;-81
2022/01/11 09:10:26;;;;;;;17.37;9.97;;;;;;;-0.53;62.60;100820.78;5044928;28;20264;-82
2022/01/11 09:12:53;;;;;;;22.63;11.90;;;;;;;-0.45;62.17;100831.53;5046246;28;20230;-80
2022/01/11 09:15:22;;;;;;;21.63;12.30;;;;;;;-0.34;61.40;100820.19;5029131;28;20260;-87
2022/01/11 09:17:59;;;;;;;21.57;12.07;;;;;;;-0.28;62.24;100835.47;5019479;28;20221;-81
2022/01/11 09:20:31;;;;;;;22.20;11.90;;;;;;;-0.19;61.67;100833.94;5025148;28;20717;-83
2022/01/11 09:23:06;;;;;;;22.00;12.97;;;;;;;-0.07;61.78;100846.13;5027718;28;20229;-81
2022/01/11 09:25:38;;;;;;;23.47;12.47;;;;;;;-0.03;61.46;100850.19;5042930;28;20222;-81
2022/01/11 09:28:11;;;;;;;20.83;11.73;;;;;;;-0.07;61.75;100868.03;5010374;28;20230;-80
2022/01/11 09:30:42;;;;;;;22.77;12.90;;;;;;;-0.03;60.93;100860.72;5026727;28;20218;-80
2022/01/11 09:33:18;;;;;;;22.23;12.80;;;;;;;0.10;60.87;100850.03;5028735;28;20232;-80
2022/01/11 09:35:47;;;;;;;22.40;12.83;;;;;;;0.14;60.57;100868.09;5026607;28;20281;-81
2022/01/11 09:38:22;;;;;;;22.63;12.43;;;;;;;0.11;60.14;100870.16;5028008;28;20280;-81
2022/01/11 09:40:54;;;;;;;22.50;12.33;;;;;;;-0.06;60.50;100860.97;5025786;28;20260;-84
2022/01/11 09:43:27;;;;;;;21.80;11.63;;;;;;;0.18;60.06;100872.19;5027838;28;20210;-81
2022/01/11 09:46:02;;;;;;;22.23;13.10;;;;;;;0.10;59.84;100868.47;5045386;28;20261;-82
2022/01/11 09:48:32;;;;;;;21.33;11.77;;;;;;;0.10;59.83;100865.84;5029148;28;20234;-82
2022/01/11 09:51:00;;;;;;;21.73;11.37;;;;;;;0.16;59.19;100858.28;5013668;28;20193;-82
2022/01/11 09:53:28;;;;;;;21.07;11.80;;;;;;;0.30;59.32;100860.66;5029329;28;20312;-81
2022/01/11 09:56:08;;;;;;;20.67;11.33;;;;;;;0.21;58.85;100845.59;5014297;28;20221;-81
2022/01/11 09:58:40;;;;;;;19.03;11.50;;;;;;;0.21;58.91;100844.75;5031563;28;20704;-82
2022/01/11 10:01:30;;;;;;;19.93;11.13;;;;;;;-0.11;59.19;100831.53;5028060;28;20229;-83
2022/01/11 10:04:32;;;;;;;22.10;12.50;;;;;;;0.05;59.04;100850.41;5045657;28;20248;-81
2022/01/11 10:07:33;;;;;;;21.13;10.20;;;;;;;0.11;59.16;100833.25;5043195;28;20233;-81
2022/01/11 10:10:01;;;;;;;23.57;12.23;;;;;;;0.20;58.90;100858.88;5013133;28;20239;-82
2022/01/11 10:12:46;;;;;;;18.73;10.80;;;;;;;0.20;58.39;100850.97;5029459;28;20244;-82
2022/01/11 10:15:14;;;;;;;16.73;9.90;;;;;;;0.07;59.16;100837.94;5030156;28;20241;-81
2022/01/11 10:17:44;;;;;;;20.07;10.87;;;;;;;0.21;58.35;100831.56;5030539;28;20218;-82
2022/01/11 10:20:21;;;;;;;19.10;10.93;;;;;;;0.42;58.67;100827.19;5013697;28;20214;-82
2022/01/11 10:23:13;;;;;;;21.10;10.93;;;;;;;0.31;58.75;100822.78;5032199;28;20293;-81
2022/01/11 10:25:49;;;;;;;21.50;11.60;;;;;;;0.39;58.19;100835.34;5031158;28;20531;-81
2022/01/11 10:28:36;;;;;;;19.50;11.53;;;;;;;0.45;58.82;100845.38;5027727;28;20272;-83
2022/01/11 10:31:07;;;;;;;18.83;9.77;;;;;;;0.35;58.88;100824.22;5046129;28;20214;-82
2022/01/11 10:33:59;;;;;;;21.27;11.10;;;;;;;0.48;57.98;100828.47;5014363;28;20305;-83
2022/01/11 10:36:44;;;;;;;21.77;11.93;;;;;;;0.50;58.22;100819.50;4997400;28;20222;-81
2022/01/11 10:39:35;;;;;;;21.00;10.87;;;;;;;0.53;58.26;100821.84;5027232;28;20471;-87
2022/01/11 10:42:23;;;;;;;19.33;11.67;;;;;;;0.49;58.07;100803.78;5044681;28;20234;-87
2022/01/11 10:45:03;;;;;;;19.30;9.73;;;;;;;0.70;57.99;100817.84;5013374;28;20238;-81
2022/01/11 10:47:41;;;;;;;19.00;10.10;;;;;;;0.77;57.52;100819.81;5048494;28;20248;-82
2022/01/11 10:50:28;;;;;;;17.37;9.70;;;;;;;0.77;57.20;100825.09;5032770;28;20606;-84
2022/01/11 10:53:05;;;;;;;20.37;11.60;;;;;;;1.01;57.04;100822.22;5048529;28;20241;-81
2022/01/11 10:55:41;;;;;;;19.30;10.90;;;;;;;0.91;56.62;100809.91;5034423;28;20218;-82
2022/01/11 10:58:36;;;;;;;19.63;11.30;;;;;;;0.93;57.68;100808.00;5029973;28;20250;-81
2022/01/11 11:01:08;;;;;;;19.83;11.80;;;;;;;0.69;57.46;100816.16;5032557;28;20230;-81
2022/01/11 11:03:36;;;;;;;21.07;11.30;;;;;;;0.64;57.92;100816.53;5015172;28;20226;-82
2022/01/11 11:06:10;;;;;;;18.47;10.60;;;;;;;0.43;58.23;100805.13;5015137;28;20230;-81
2022/01/11 11:08:47;;;;;;;18.20;10.77;;;;;;;0.51;58.35;100802.72;5031035;28;20242;-82
2022/01/11 11:11:38;;;;;;;17.97;10.07;;;;;;;0.14;59.02;100782.97;5033581;28;20221;-81
2022/01/11 11:14:51;;;;;;;21.40;11.53;;;;;;;0.08;58.98;100791.34;5023942;28;20229;-82
2022/01/11 11:17:35;;;;;;;22.90;11.97;;;;;;;0.04;59.64;100803.94;5031600;28;20237;-81
2022/01/11 11:20:13;;;;;;;22.53;12.60;;;;;;;-0.01;59.94;100803.47;5046100;28;20226;-81
2022/01/11 11:22:41;;;;;;;20.13;11.13;;;;;;;0.12;58.97;100813.84;5047533;28;20296;-81
2022/01/11 11:25:08;;;;;;;19.33;11.13;;;;;;;0.20;58.59;100835.16;5012720;28;20293;-81
2022/01/11 11:27:37;;;;;;;19.20;11.47;;;;;;;0.31;59.21;100824.59;5013771;28;20210;-82
2022/01/11 11:30:06;;;;;;;21.40;11.50;;;;;;;0.48;58.59;100831.94;5014348;28;20228;-81
2022/01/11 11:32:33;;;;;;;19.97;11.87;;;;;;;0.61;58.50;100835.25;5046367;28;20307;-81
2022/01/11 11:35:09;;;;;;;22.30;12.63;;;;;;;0.73;58.37;100828.97;5031253;28;20234;-81
2022/01/11 11:37:38;;;;;;;24.27;11.87;;;;;;;0.81;57.34;100829.16;5046711;28;20225;-81
2022/01/11 11:40:27;;;;;;;19.90;10.93;;;;;;;0.89;57.24;100828.50;5031561;28;20273;-80